sensor_id;sensor_type;location;lat;lon;timestamp;pressure;altitude;pressure_sealevel;temperature;humidity
82395;BME280;72031;51.786;4.662;2024-01-15T00:02:16;100568.63;;;1.83;92.32
82395;BME280;72031;51.786;4.662;2024-01-15T00:04:42;100561.00;;;1.76;91.96
82395;BME280;72031;51.786;4.662;2024-01-15T00:07:08;100554.97;;;1.74;92.18
82395;BME280;72031;51.786;4.662;2024-01-15T00:09:36;100551.66;;;1.68;92.97
82395;BME280;72031;51.786;4.662;2024-01-15T00:12:13;100556.88;;;1.70;92.87
82395;BME280;72031;51.786;4.662;2024-01-15T00:14:39;100550.84;;;1.66;92.36
82395;BME280;72031;51.786;4.662;2024-01-15T00:17:09;100552.47;;;1.71;92.01
82395;BME280;72031;51.786;4.662;2024-01-15T00:19:35;100549.41;;;1.81;91.58
82395;BME280;72031;51.786;4.662;2024-01-15T00:22:02;100541.72;;;1.77;91.67
82395;BME280;72031;51.786;4.662;2024-01-15T00:24:28;100541.38;;;1.84;91.70
82395;BME280;72031;51.786;4.662;2024-01-15T00:26:54;100544.63;;;1.91;91.29
82395;BME280;72031;51.786;4.662;2024-01-15T00:29:21;100535.72;;;1.95;91.12
82395;BME280;72031;51.786;4.662;2024-01-15T00:31:52;100537.22;;;2.02;89.91
82395;BME280;72031;51.786;4.662;2024-01-15T00:34:17;100539.47;;;2.11;89.52
82395;BME280;72031;51.786;4.662;2024-01-15T00:37:05;100533.28;;;2.12;89.94
82395;BME280;72031;51.786;4.662;2024-01-15T00:39:54;100525.94;;;2.20;88.73
82395;BME280;72031;51.786;4.662;2024-01-15T00:42:24;100522.63;;;2.37;87.90
82395;BME280;72031;51.786;4.662;2024-01-15T00:44:50;100527.66;;;2.21;87.36
82395;BME280;72031;51.786;4.662;2024-01-15T00:47:18;100526.69;;;2.02;88.09
82395;BME280;72031;51.786;4.662;2024-01-15T00:49:47;100525.94;;;1.98;88.29
82395;BME280;72031;51.786;4.662;2024-01-15T00:52:14;100522.13;;;2.06;88.53
82395;BME280;72031;51.786;4.662;2024-01-15T00:54:40;100518.09;;;1.97;88.20
82395;BME280;72031;51.786;4.662;2024-01-15T00:57:10;100513.09;;;2.13;87.85
82395;BME280;72031;51.786;4.662;2024-01-15T00:59:38;100505.66;;;2.22;88.03
82395;BME280;72031;51.786;4.662;2024-01-15T01:02:04;100496.94;;;2.42;87.90
82395;BME280;72031;51.786;4.662;2024-01-15T01:04:36;100499.63;;;2.41;87.38
82395;BME280;72031;51.786;4.662;2024-01-15T01:07:03;100500.94;;;2.31;88.91
82395;BME280;72031;51.786;4.662;2024-01-15T01:09:29;100504.59;;;2.48;87.77
82395;BME280;72031;51.786;4.662;2024-01-15T01:11:57;100499.91;;;2.55;87.67
82395;BME280;72031;51.786;4.662;2024-01-15T01:14:24;100504.13;;;2.59;87.34
82395;BME280;72031;51.786;4.662;2024-01-15T01:16:50;100495.25;;;2.62;87.68
82395;BME280;72031;51.786;4.662;2024-01-15T01:19:17;100501.09;;;2.68;86.82
82395;BME280;72031;51.786;4.662;2024-01-15T01:21:43;100497.06;;;2.60;86.75
82395;BME280;72031;51.786;4.662;2024-01-15T01:24:11;100502.09;;;2.66;86.35
82395;BME280;72031;51.786;4.662;2024-01-15T01:26:38;100498.47;;;2.48;87.09
82395;BME280;72031;51.786;4.662;2024-01-15T01:29:03;100497.00;;;2.41;87.01
82395;BME280;72031;51.786;4.662;2024-01-15T01:31:31;100494.75;;;2.32;86.98
82395;BME280;72031;51.786;4.662;2024-01-15T01:34:16;100491.97;;;2.35;86.88
82395;BME280;72031;51.786;4.662;2024-01-15T01:36:44;100495.84;;;2.26;87.11
82395;BME280;72031;51.786;4.662;2024-01-15T01:39:11;100501.78;;;2.31;86.75
82395;BME280;72031;51.786;4.662;2024-01-15T01:41:38;100498.06;;;2.15;87.18
82395;BME280;72031;51.786;4.662;2024-01-15T01:44:06;100496.53;;;2.09;87.22
82395;BME280;72031;51.786;4.662;2024-01-15T01:46:34;100504.06;;;2.18;87.03
82395;BME280;72031;51.786;4.662;2024-01-15T01:49:07;100494.56;;;2.36;87.03
82395;BME280;72031;51.786;4.662;2024-01-15T01:51:36;100501.56;;;2.37;86.16
82395;BME280;72031;51.786;4.662;2024-01-15T01:54:06;100493.13;;;2.29;86.06
82395;BME280;72031;51.786;4.662;2024-01-15T01:56:35;100488.25;;;2.18;86.30
82395;BME280;72031;51.786;4.662;2024-01-15T01:59:03;100500.00;;;2.11;86.10
82395;BME280;72031;51.786;4.662;2024-01-15T02:01:31;100513.44;;;1.82;87.32
82395;BME280;72031;51.786;4.662;2024-01-15T02:03:58;100526.88;;;1.74;89.31
82395;BME280;72031;51.786;4.662;2024-01-15T02:06:25;100535.34;;;1.82;91.02
82395;BME280;72031;51.786;4.662;2024-01-15T02:08:53;100542.22;;;1.86;90.72
82395;BME280;72031;51.786;4.662;2024-01-15T02:11:18;100514.28;;;1.82;90.18
82395;BME280;72031;51.786;4.662;2024-01-15T02:13:46;100491.66;;;1.78;89.88
82395;BME280;72031;51.786;4.662;2024-01-15T02:16:11;100477.34;;;1.85;89.68
82395;BME280;72031;51.786;4.662;2024-01-15T02:18:42;100473.16;;;2.02;89.12
82395;BME280;72031;51.786;4.662;2024-01-15T02:21:09;100474.38;;;2.15;86.97
82395;BME280;72031;51.786;4.662;2024-01-15T02:23:36;100475.41;;;2.33;85.70
82395;BME280;72031;51.786;4.662;2024-01-15T02:26:03;100479.34;;;2.43;85.54
82395;BME280;72031;51.786;4.662;2024-01-15T02:28:30;100478.78;;;2.57;85.43
82395;BME280;72031;51.786;4.662;2024-01-15T02:30:56;100467.78;;;2.67;84.03
82395;BME280;72031;51.786;4.662;2024-01-15T02:33:22;100475.69;;;2.47;85.10
82395;BME280;72031;51.786;4.662;2024-01-15T02:35:48;100470.59;;;2.42;85.36
82395;BME280;72031;51.786;4.662;2024-01-15T02:38:16;100471.81;;;2.13;86.47
82395;BME280;72031;51.786;4.662;2024-01-15T02:40:44;100474.16;;;1.99;86.66
82395;BME280;72031;51.786;4.662;2024-01-15T02:43:10;100472.44;;;1.98;87.00
82395;BME280;72031;51.786;4.662;2024-01-15T02:45:37;100473.25;;;1.78;88.56
82395;BME280;72031;51.786;4.662;2024-01-15T02:48:04;100476.28;;;1.67;88.58
82395;BME280;72031;51.786;4.662;2024-01-15T02:50:30;100478.19;;;1.64;89.90
82395;BME280;72031;51.786;4.662;2024-01-15T02:52:55;100480.75;;;1.65;89.88
82395;BME280;72031;51.786;4.662;2024-01-15T02:55:21;100473.78;;;1.64;89.93
82395;BME280;72031;51.786;4.662;2024-01-15T02:57:47;100473.81;;;1.86;89.10
82395;BME280;72031;51.786;4.662;2024-01-15T03:00:13;100488.72;;;1.86;89.69
82395;BME280;72031;51.786;4.662;2024-01-15T03:02:40;100486.38;;;2.00;89.61
82395;BME280;72031;51.786;4.662;2024-01-15T03:05:09;100485.81;;;1.93;89.26
82395;BME280;72031;51.786;4.662;2024-01-15T03:07:37;100482.72;;;2.04;89.66
82395;BME280;72031;51.786;4.662;2024-01-15T03:10:03;100484.59;;;2.01;89.94
82395;BME280;72031;51.786;4.662;2024-01-15T03:12:28;100492.19;;;2.08;90.17
82395;BME280;72031;51.786;4.662;2024-01-15T03:14:54;100488.00;;;2.04;90.02
82395;BME280;72031;51.786;4.662;2024-01-15T03:17:20;100484.00;;;2.16;89.21
82395;BME280;72031;51.786;4.662;2024-01-15T03:19:45;100484.19;;;2.11;89.71
82395;BME280;72031;51.786;4.662;2024-01-15T03:22:11;100482.50;;;2.10;89.28
82395;BME280;72031;51.786;4.662;2024-01-15T03:24:36;100489.78;;;2.04;89.36
82395;BME280;72031;51.786;4.662;2024-01-15T03:27:02;100500.03;;;1.88;89.36
82395;BME280;72031;51.786;4.662;2024-01-15T03:29:28;100499.34;;;1.83;90.35
82395;BME280;72031;51.786;4.662;2024-01-15T03:31:55;100496.53;;;1.65;91.25
82395;BME280;72031;51.786;4.662;2024-01-15T03:34:21;100491.84;;;1.74;91.34
82395;BME280;72031;51.786;4.662;2024-01-15T03:36:46;100497.09;;;1.74;91.14
82395;BME280;72031;51.786;4.662;2024-01-15T03:39:12;100490.84;;;1.76;91.82
82395;BME280;72031;51.786;4.662;2024-01-15T03:41:39;100485.25;;;1.85;91.14
82395;BME280;72031;51.786;4.662;2024-01-15T03:44:07;100481.94;;;1.80;91.30
82395;BME280;72031;51.786;4.662;2024-01-15T03:46:34;100473.72;;;1.66;91.27
82395;BME280;72031;51.786;4.662;2024-01-15T03:49:00;100457.69;;;1.50;91.59
82395;BME280;72031;51.786;4.662;2024-01-15T03:51:26;100462.50;;;1.39;92.54
82395;BME280;72031;51.786;4.662;2024-01-15T03:53:52;100462.66;;;1.34;93.17
82395;BME280;72031;51.786;4.662;2024-01-15T03:56:19;100456.81;;;1.28;93.16
82395;BME280;72031;51.786;4.662;2024-01-15T03:58:44;100452.47;;;1.27;93.81
82395;BME280;72031;51.786;4.662;2024-01-15T04:01:10;100446.63;;;1.19;93.78
82395;BME280;72031;51.786;4.662;2024-01-15T04:03:36;100450.16;;;1.18;94.52
82395;BME280;72031;51.786;4.662;2024-01-15T04:06:03;100448.97;;;1.26;93.55
82395;BME280;72031;51.786;4.662;2024-01-15T04:08:29;100446.03;;;1.34;94.17
82395;BME280;72031;51.786;4.662;2024-01-15T04:10:55;100453.81;;;1.37;94.60
82395;BME280;72031;51.786;4.662;2024-01-15T04:13:21;100445.50;;;1.48;93.81
82395;BME280;72031;51.786;4.662;2024-01-15T04:15:47;100446.13;;;1.54;93.30
82395;BME280;72031;51.786;4.662;2024-01-15T04:18:13;100440.03;;;1.54;93.55
82395;BME280;72031;51.786;4.662;2024-01-15T04:20:39;100443.84;;;1.68;93.23
82395;BME280;72031;51.786;4.662;2024-01-15T04:23:05;100432.13;;;1.76;92.79
82395;BME280;72031;51.786;4.662;2024-01-15T04:25:32;100442.53;;;1.79;92.51
82395;BME280;72031;51.786;4.662;2024-01-15T04:27:58;100433.66;;;1.81;92.20
82395;BME280;72031;51.786;4.662;2024-01-15T04:30:24;100437.16;;;1.82;92.43
82395;BME280;72031;51.786;4.662;2024-01-15T04:32:51;100434.03;;;1.72;92.51
82395;BME280;72031;51.786;4.662;2024-01-15T04:35:17;100447.13;;;1.74;91.80
82395;BME280;72031;51.786;4.662;2024-01-15T04:37:43;100436.72;;;1.71;92.11
82395;BME280;72031;51.786;4.662;2024-01-15T04:40:10;100421.41;;;1.58;92.53
82395;BME280;72031;51.786;4.662;2024-01-15T04:42:36;100431.91;;;1.60;92.12
82395;BME280;72031;51.786;4.662;2024-01-15T04:45:22;100413.22;;;1.66;93.39
82395;BME280;72031;51.786;4.662;2024-01-15T04:47:56;100412.19;;;1.70;92.52
82395;BME280;72031;51.786;4.662;2024-01-15T04:50:44;100417.41;;;1.93;92.54
82395;BME280;72031;51.786;4.662;2024-01-15T04:53:15;100428.94;;;2.11;91.42
82395;BME280;72031;51.786;4.662;2024-01-15T04:55:41;100429.72;;;2.13;90.70
82395;BME280;72031;51.786;4.662;2024-01-15T04:58:07;100424.00;;;1.82;90.72
82395;BME280;72031;51.786;4.662;2024-01-15T05:00:33;100422.59;;;1.73;90.52
82395;BME280;72031;51.786;4.662;2024-01-15T05:02:59;100415.94;;;1.64;91.06
82395;BME280;72031;51.786;4.662;2024-01-15T05:05:25;100416.94;;;1.38;91.71
82395;BME280;72031;51.786;4.662;2024-01-15T05:07:51;100412.41;;;1.42;92.53
82395;BME280;72031;51.786;4.662;2024-01-15T05:10:16;100423.72;;;1.22;93.06
82395;BME280;72031;51.786;4.662;2024-01-15T05:12:42;100407.44;;;1.36;93.65
82395;BME280;72031;51.786;4.662;2024-01-15T05:15:08;100409.50;;;1.28;93.87
82395;BME280;72031;51.786;4.662;2024-01-15T05:17:35;100414.00;;;1.24;94.10
82395;BME280;72031;51.786;4.662;2024-01-15T05:20:02;100412.22;;;1.25;94.55
82395;BME280;72031;51.786;4.662;2024-01-15T05:22:30;100413.34;;;1.41;94.41
82395;BME280;72031;51.786;4.662;2024-01-15T05:25:05;100407.47;;;1.56;94.79
82395;BME280;72031;51.786;4.662;2024-01-15T05:27:32;100405.16;;;1.71;93.78
82395;BME280;72031;51.786;4.662;2024-01-15T05:30:07;100410.28;;;1.74;92.68
82395;BME280;72031;51.786;4.662;2024-01-15T05:35:09;100415.50;;;1.53;92.62
82395;BME280;72031;51.786;4.662;2024-01-15T05:37:35;100415.75;;;1.47;93.87
82395;BME280;72031;51.786;4.662;2024-01-15T05:40:01;100403.97;;;1.34;93.11
82395;BME280;72031;51.786;4.662;2024-01-15T05:42:31;100400.34;;;1.15;93.81
82395;BME280;72031;51.786;4.662;2024-01-15T05:45:47;100399.00;;;1.04;94.11
82395;BME280;72031;51.786;4.662;2024-01-15T05:48:17;100387.41;;;0.87;94.69
82395;BME280;72031;51.786;4.662;2024-01-15T05:50:45;100394.66;;;0.80;95.42
82395;BME280;72031;51.786;4.662;2024-01-15T05:53:12;100389.63;;;0.74;95.67
82395;BME280;72031;51.786;4.662;2024-01-15T05:55:40;100403.66;;;0.73;96.01
82395;BME280;72031;51.786;4.662;2024-01-15T05:58:11;100405.63;;;0.68;95.21
82395;BME280;72031;51.786;4.662;2024-01-15T06:08:29;100398.88;;;0.61;95.93
82395;BME280;72031;51.786;4.662;2024-01-15T06:10:56;100386.88;;;0.53;96.13
82395;BME280;72031;51.786;4.662;2024-01-15T06:13:28;100383.34;;;0.54;95.82
82395;BME280;72031;51.786;4.662;2024-01-15T06:15:54;100378.22;;;0.51;96.87
82395;BME280;72031;51.786;4.662;2024-01-15T06:18:19;100380.38;;;0.64;96.22
82395;BME280;72031;51.786;4.662;2024-01-15T06:23:20;100373.94;;;0.72;96.40
82395;BME280;72031;51.786;4.662;2024-01-15T06:30:49;100378.19;;;0.75;95.63
82395;BME280;72031;51.786;4.662;2024-01-15T06:33:15;100396.84;;;0.69;96.67
82395;BME280;72031;51.786;4.662;2024-01-15T06:35:40;100395.28;;;0.87;95.50
82395;BME280;72031;51.786;4.662;2024-01-15T06:38:06;100413.03;;;0.80;96.52
82395;BME280;72031;51.786;4.662;2024-01-15T06:40:31;100408.50;;;0.85;96.37
82395;BME280;72031;51.786;4.662;2024-01-15T06:42:57;100426.19;;;0.80;95.66
82395;BME280;72031;51.786;4.662;2024-01-15T06:45:22;100407.50;;;0.88;95.43
82395;BME280;72031;51.786;4.662;2024-01-15T06:47:48;100412.75;;;0.88;96.24
82395;BME280;72031;51.786;4.662;2024-01-15T06:50:13;100410.78;;;0.94;96.00
82395;BME280;72031;51.786;4.662;2024-01-15T06:52:39;100404.88;;;1.11;96.66
82395;BME280;72031;51.786;4.662;2024-01-15T06:55:04;100412.28;;;1.23;95.42
82395;BME280;72031;51.786;4.662;2024-01-15T06:57:31;100406.00;;;1.27;94.33
82395;BME280;72031;51.786;4.662;2024-01-15T06:59:56;100403.88;;;1.37;94.47
82395;BME280;72031;51.786;4.662;2024-01-15T07:02:24;100392.00;;;1.49;93.47
82395;BME280;72031;51.786;4.662;2024-01-15T07:04:49;100389.16;;;1.55;93.24
82395;BME280;72031;51.786;4.662;2024-01-15T07:07:15;100392.31;;;1.41;93.89
82395;BME280;72031;51.786;4.662;2024-01-15T07:09:41;100382.66;;;1.41;93.29
82395;BME280;72031;51.786;4.662;2024-01-15T07:12:07;100397.75;;;1.36;93.60
82395;BME280;72031;51.786;4.662;2024-01-15T07:14:33;100401.34;;;1.34;93.77
82395;BME280;72031;51.786;4.662;2024-01-15T07:17:01;100406.94;;;1.26;94.03
82395;BME280;72031;51.786;4.662;2024-01-15T07:19:27;100401.34;;;1.34;93.98
82395;BME280;72031;51.786;4.662;2024-01-15T07:21:54;100396.34;;;1.28;93.50
82395;BME280;72031;51.786;4.662;2024-01-15T07:24:20;100408.66;;;1.04;94.62
82395;BME280;72031;51.786;4.662;2024-01-15T07:26:46;100400.00;;;1.00;94.84
82395;BME280;72031;51.786;4.662;2024-01-15T07:29:11;100394.53;;;0.83;95.13
82395;BME280;72031;51.786;4.662;2024-01-15T07:31:36;100400.94;;;0.76;95.03
82395;BME280;72031;51.786;4.662;2024-01-15T07:34:02;100391.00;;;0.61;96.26
82395;BME280;72031;51.786;4.662;2024-01-15T07:36:30;100387.63;;;0.57;95.43
82395;BME280;72031;51.786;4.662;2024-01-15T07:38:55;100388.31;;;0.62;97.42
82395;BME280;72031;51.786;4.662;2024-01-15T07:41:22;100380.88;;;0.73;96.09
82395;BME280;72031;51.786;4.662;2024-01-15T07:43:48;100385.88;;;0.81;95.71
82395;BME280;72031;51.786;4.662;2024-01-15T07:46:14;100378.78;;;0.83;95.73
82395;BME280;72031;51.786;4.662;2024-01-15T07:48:43;100386.09;;;0.98;96.08
82395;BME280;72031;51.786;4.662;2024-01-15T07:51:08;100383.81;;;0.89;95.69
82395;BME280;72031;51.786;4.662;2024-01-15T07:53:35;100389.41;;;1.03;94.75
82395;BME280;72031;51.786;4.662;2024-01-15T07:56:00;100402.63;;;1.00;95.50
82395;BME280;72031;51.786;4.662;2024-01-15T07:58:26;100407.88;;;1.00;95.06
82395;BME280;72031;51.786;4.662;2024-01-15T08:00:51;100413.41;;;0.94;95.07
82395;BME280;72031;51.786;4.662;2024-01-15T08:03:18;100411.00;;;0.88;95.91
82395;BME280;72031;51.786;4.662;2024-01-15T08:05:43;100419.00;;;0.85;95.57
82395;BME280;72031;51.786;4.662;2024-01-15T08:08:08;100413.19;;;0.75;95.75
82395;BME280;72031;51.786;4.662;2024-01-15T08:10:34;100408.66;;;0.80;96.07
82395;BME280;72031;51.786;4.662;2024-01-15T08:12:59;100381.94;;;0.69;96.08
82395;BME280;72031;51.786;4.662;2024-01-15T08:15:25;100382.56;;;0.76;96.12
82395;BME280;72031;51.786;4.662;2024-01-15T08:17:50;100385.88;;;0.81;95.33
82395;BME280;72031;51.786;4.662;2024-01-15T08:20:16;100380.31;;;0.89;95.28
82395;BME280;72031;51.786;4.662;2024-01-15T08:22:41;100374.06;;;0.93;95.13
82395;BME280;72031;51.786;4.662;2024-01-15T08:25:08;100373.66;;;1.03;94.69
82395;BME280;72031;51.786;4.662;2024-01-15T08:27:34;100379.81;;;1.24;93.04
82395;BME280;72031;51.786;4.662;2024-01-15T08:30:00;100375.50;;;1.23;93.87
82395;BME280;72031;51.786;4.662;2024-01-15T08:32:26;100383.63;;;1.39;93.28
82395;BME280;72031;51.786;4.662;2024-01-15T08:34:52;100387.59;;;1.49;91.38
82395;BME280;72031;51.786;4.662;2024-01-15T08:37:18;100385.09;;;1.46;91.83
82395;BME280;72031;51.786;4.662;2024-01-15T08:39:44;100387.81;;;1.45;91.75
82395;BME280;72031;51.786;4.662;2024-01-15T08:42:10;100396.91;;;1.36;91.89
82395;BME280;72031;51.786;4.662;2024-01-15T08:44:36;100394.50;;;1.30;92.20
82395;BME280;72031;51.786;4.662;2024-01-15T08:47:02;100401.97;;;1.19;92.45
82395;BME280;72031;51.786;4.662;2024-01-15T08:49:28;100408.47;;;1.08;93.12
82395;BME280;72031;51.786;4.662;2024-01-15T08:51:54;100397.06;;;1.09;92.75
82395;BME280;72031;51.786;4.662;2024-01-15T08:54:20;100393.75;;;1.04;92.67
82395;BME280;72031;51.786;4.662;2024-01-15T08:56:45;100402.13;;;1.14;92.38
82395;BME280;72031;51.786;4.662;2024-01-15T08:59:11;100405.75;;;1.11;92.40
82395;BME280;72031;51.786;4.662;2024-01-15T09:01:38;100407.22;;;1.19;91.87
82395;BME280;72031;51.786;4.662;2024-01-15T09:04:03;100408.00;;;1.21;91.84
82395;BME280;72031;51.786;4.662;2024-01-15T09:06:29;100402.97;;;1.38;91.15
82395;BME280;72031;51.786;4.662;2024-01-15T09:08:55;100397.84;;;1.35;90.99
82395;BME280;72031;51.786;4.662;2024-01-15T09:11:21;100401.00;;;1.43;90.74
82395;BME280;72031;51.786;4.662;2024-01-15T09:13:48;100405.78;;;1.55;90.16
82395;BME280;72031;51.786;4.662;2024-01-15T09:16:15;100401.84;;;1.65;90.22
82395;BME280;72031;51.786;4.662;2024-01-15T09:18:41;100418.66;;;1.83;89.50
82395;BME280;72031;51.786;4.662;2024-01-15T09:21:06;100407.19;;;2.06;89.28
82395;BME280;72031;51.786;4.662;2024-01-15T09:23:32;100417.88;;;2.23;89.16
82395;BME280;72031;51.786;4.662;2024-01-15T09:25:58;100418.69;;;2.46;87.38
82395;BME280;72031;51.786;4.662;2024-01-15T09:28:24;100417.06;;;2.42;86.49
82395;BME280;72031;51.786;4.662;2024-01-15T09:30:49;100426.19;;;2.55;85.91
82395;BME280;72031;51.786;4.662;2024-01-15T09:33:25;100422.88;;;2.70;84.51
82395;BME280;72031;51.786;4.662;2024-01-15T09:35:51;100431.19;;;2.61;85.94
82395;BME280;72031;51.786;4.662;2024-01-15T09:38:16;100423.59;;;2.53;86.63
82395;BME280;72031;51.786;4.662;2024-01-15T09:40:45;100426.94;;;2.57;87.34
82395;BME280;72031;51.786;4.662;2024-01-15T09:43:17;100436.03;;;2.50;87.47
82395;BME280;72031;51.786;4.662;2024-01-15T09:45:46;100425.66;;;2.47;87.70
82395;BME280;72031;51.786;4.662;2024-01-15T09:48:15;100426.94;;;2.57;88.33
82395;BME280;72031;51.786;4.662;2024-01-15T09:50:45;100433.66;;;2.64;88.47
82395;BME280;72031;51.786;4.662;2024-01-15T09:53:13;100435.31;;;2.67;88.04
82395;BME280;72031;51.786;4.662;2024-01-15T09:55:41;100430.19;;;2.64;87.52
82395;BME280;72031;51.786;4.662;2024-01-15T09:58:07;100425.03;;;2.81;87.67
82395;BME280;72031;51.786;4.662;2024-01-15T10:00:35;100426.59;;;2.85;87.01
82395;BME280;72031;51.786;4.662;2024-01-15T10:03:05;100424.16;;;2.80;87.35
82395;BME280;72031;51.786;4.662;2024-01-15T10:05:32;100414.81;;;2.73;87.11
82395;BME280;72031;51.786;4.662;2024-01-15T10:08:00;100420.09;;;2.73;86.11
82395;BME280;72031;51.786;4.662;2024-01-15T10:10:27;100422.91;;;2.69;85.66
82395;BME280;72031;51.786;4.662;2024-01-15T10:12:54;100433.94;;;2.78;86.04
82395;BME280;72031;51.786;4.662;2024-01-15T10:15:23;100438.50;;;2.94;84.59
82395;BME280;72031;51.786;4.662;2024-01-15T10:17:50;100438.88;;;3.05;82.51
82395;BME280;72031;51.786;4.662;2024-01-15T10:20:16;100421.97;;;3.09;83.58
82395;BME280;72031;51.786;4.662;2024-01-15T10:22:42;100426.28;;;3.30;81.51
82395;BME280;72031;51.786;4.662;2024-01-15T10:25:13;100418.88;;;3.20;81.90
82395;BME280;72031;51.786;4.662;2024-01-15T10:27:40;100428.84;;;3.13;82.31
82395;BME280;72031;51.786;4.662;2024-01-15T10:30:07;100426.53;;;2.87;83.27
82395;BME280;72031;51.786;4.662;2024-01-15T10:32:33;100439.06;;;2.81;85.05
82395;BME280;72031;51.786;4.662;2024-01-15T10:35:01;100476.78;;;2.82;84.90
82395;BME280;72031;51.786;4.662;2024-01-15T10:37:32;100457.00;;;2.53;88.23
82395;BME280;72031;51.786;4.662;2024-01-15T10:40:01;100451.59;;;2.36;88.44
82395;BME280;72031;51.786;4.662;2024-01-15T10:42:31;100453.16;;;2.19;89.49
82395;BME280;72031;51.786;4.662;2024-01-15T10:44:57;100459.66;;;2.11;89.64
82395;BME280;72031;51.786;4.662;2024-01-15T10:47:23;100460.09;;;1.78;90.49
82395;BME280;72031;51.786;4.662;2024-01-15T10:49:50;100467.72;;;1.62;91.67
82395;BME280;72031;51.786;4.662;2024-01-15T10:52:17;100458.69;;;1.69;91.51
82395;BME280;72031;51.786;4.662;2024-01-15T10:54:44;100459.09;;;1.59;91.59
82395;BME280;72031;51.786;4.662;2024-01-15T10:57:11;100463.34;;;1.39;92.84
82395;BME280;72031;51.786;4.662;2024-01-15T10:59:36;100451.75;;;1.45;93.07
82395;BME280;72031;51.786;4.662;2024-01-15T11:02:02;100447.28;;;1.47;93.44
82395;BME280;72031;51.786;4.662;2024-01-15T11:04:32;100454.69;;;1.59;92.51
82395;BME280;72031;51.786;4.662;2024-01-15T11:06:57;100448.88;;;1.73;93.15
82395;BME280;72031;51.786;4.662;2024-01-15T11:09:23;100453.44;;;1.69;93.32
82395;BME280;72031;51.786;4.662;2024-01-15T11:12:10;100460.94;;;1.79;91.78
82395;BME280;72031;51.786;4.662;2024-01-15T11:14:50;100461.06;;;1.97;91.55
82395;BME280;72031;51.786;4.662;2024-01-15T11:17:18;100458.56;;;1.94;90.92
82395;BME280;72031;51.786;4.662;2024-01-15T11:19:44;100462.47;;;2.06;89.90
82395;BME280;72031;51.786;4.662;2024-01-15T11:24:57;100453.72;;;2.06;90.10
82395;BME280;72031;51.786;4.662;2024-01-15T11:27:46;100457.28;;;2.05;89.90
82395;BME280;72031;51.786;4.662;2024-01-15T11:30:25;100455.72;;;1.99;90.04
82395;BME280;72031;51.786;4.662;2024-01-15T11:32:51;100443.91;;;2.09;90.57
82395;BME280;72031;51.786;4.662;2024-01-15T11:35:48;100437.47;;;2.16;89.54
82395;BME280;72031;51.786;4.662;2024-01-15T11:38:27;100436.81;;;2.32;88.73
82395;BME280;72031;51.786;4.662;2024-01-15T11:41:16;100435.06;;;2.32;87.83
82395;BME280;72031;51.786;4.662;2024-01-15T11:43:42;100435.13;;;2.31;87.87
82395;BME280;72031;51.786;4.662;2024-01-15T11:46:12;100443.19;;;2.26;87.38
82395;BME280;72031;51.786;4.662;2024-01-15T11:48:44;100446.44;;;2.33;86.54
82395;BME280;72031;51.786;4.662;2024-01-15T11:51:18;100457.09;;;2.30;86.26
82395;BME280;72031;51.786;4.662;2024-01-15T11:53:48;100456.75;;;2.17;87.35
82395;BME280;72031;51.786;4.662;2024-01-15T11:56:17;100452.63;;;2.32;88.31
82395;BME280;72031;51.786;4.662;2024-01-15T11:58:47;100454.00;;;2.40;88.63
82395;BME280;72031;51.786;4.662;2024-01-15T12:01:16;100465.94;;;2.49;89.74
82395;BME280;72031;51.786;4.662;2024-01-15T12:03:42;100472.84;;;2.51;89.68
82395;BME280;72031;51.786;4.662;2024-01-15T12:06:11;100481.88;;;2.46;88.93
82395;BME280;72031;51.786;4.662;2024-01-15T12:08:37;100482.97;;;2.40;88.52
82395;BME280;72031;51.786;4.662;2024-01-15T12:11:07;100471.53;;;2.41;88.16
82395;BME280;72031;51.786;4.662;2024-01-15T12:13:36;100477.78;;;2.39;88.43
82395;BME280;72031;51.786;4.662;2024-01-15T12:16:02;100479.63;;;2.37;87.71
82395;BME280;72031;51.786;4.662;2024-01-15T12:18:29;100488.72;;;2.50;88.19
82395;BME280;72031;51.786;4.662;2024-01-15T12:20:55;100482.19;;;2.59;87.21
82395;BME280;72031;51.786;4.662;2024-01-15T12:23:23;100492.00;;;2.55;86.77
82395;BME280;72031;51.786;4.662;2024-01-15T12:25:49;100492.13;;;2.52;85.77
82395;BME280;72031;51.786;4.662;2024-01-15T12:28:15;100508.84;;;2.51;85.87
82395;BME280;72031;51.786;4.662;2024-01-15T12:30:40;100509.34;;;2.61;85.37
82395;BME280;72031;51.786;4.662;2024-01-15T12:33:07;100516.09;;;2.46;85.74
82395;BME280;72031;51.786;4.662;2024-01-15T12:35:34;100508.13;;;2.47;85.65
82395;BME280;72031;51.786;4.662;2024-01-15T12:38:01;100512.41;;;2.50;85.42
82395;BME280;72031;51.786;4.662;2024-01-15T12:40:31;100511.44;;;2.52;85.71
82395;BME280;72031;51.786;4.662;2024-01-15T12:42:58;100520.84;;;2.58;85.33
82395;BME280;72031;51.786;4.662;2024-01-15T12:45:23;100522.94;;;2.50;86.53
82395;BME280;72031;51.786;4.662;2024-01-15T12:47:49;100526.13;;;2.58;86.24
82395;BME280;72031;51.786;4.662;2024-01-15T12:50:16;100525.25;;;2.58;86.88
82395;BME280;72031;51.786;4.662;2024-01-15T12:52:42;100522.31;;;2.65;85.99
82395;BME280;72031;51.786;4.662;2024-01-15T12:55:09;100520.06;;;2.76;87.69
82395;BME280;72031;51.786;4.662;2024-01-15T12:57:35;100511.66;;;2.89;85.66
82395;BME280;72031;51.786;4.662;2024-01-15T13:00:02;100510.53;;;2.74;86.30
82395;BME280;72031;51.786;4.662;2024-01-15T13:02:33;100522.06;;;2.71;87.02
82395;BME280;72031;51.786;4.662;2024-01-15T13:05:00;100517.31;;;2.79;85.71
82395;BME280;72031;51.786;4.662;2024-01-15T13:07:27;100519.13;;;2.77;86.06
82395;BME280;72031;51.786;4.662;2024-01-15T13:09:52;100523.22;;;2.85;85.71
82395;BME280;72031;51.786;4.662;2024-01-15T13:12:19;100517.03;;;3.06;85.51
82395;BME280;72031;51.786;4.662;2024-01-15T13:14:45;100509.59;;;2.95;84.61
82395;BME280;72031;51.786;4.662;2024-01-15T13:17:14;100512.56;;;2.88;84.95
82395;BME280;72031;51.786;4.662;2024-01-15T13:19:40;100514.28;;;2.89;85.21
82395;BME280;72031;51.786;4.662;2024-01-15T13:22:06;100520.34;;;2.91;85.22
82395;BME280;72031;51.786;4.662;2024-01-15T13:24:33;100513.59;;;2.83;85.33